Time;durP1;ratioP1;P1;durP2;ratioP2;P2;SDS_P1;SDS_P2;PMS_P1;PMS_P2;Temp;Humidity;BMP_temperature;BMP_pressure;BME280_temperature;BME280_humidity;BME280_pressure;Samples;Min_cycle;Max_cycle;Signal;HPM_P1;HPM_P2
2022/10/18 00:01:50;;;;;;;2.55;2.35;;;20.50;62.20;;;;;;4994767;28;20205;-70
2022/10/18 00:04:17;;;;;;;3.28;2.10;;;20.50;62.20;;;;;;4993586;28;20223;-70
2022/10/18 00:06:44;;;;;;;3.75;2.20;;;20.50;62.20;;;;;;4993708;28;20204;-70
2022/10/18 00:09:11;;;;;;;2.55;2.20;;;20.50;62.40;;;;;;4993850;28;20205;-70
2022/10/18 00:11:39;;;;;;;2.88;2.10;;;20.40;62.20;;;;;;4981532;28;459518;-70
2022/10/18 00:14:06;;;;;;;2.40;2.20;;;20.40;62.20;;;;;;4994369;28;20715;-70
2022/10/18 00:16:33;;;;;;;2.85;2.22;;;20.40;62.20;;;;;;4994952;28;20690;-70
2022/10/18 00:19:00;;;;;;;2.70;2.47;;;20.40;62.30;;;;;;4994021;28;20232;-70
2022/10/18 00:21:27;;;;;;;3.33;2.42;;;20.40;62.30;;;;;;4994492;28;20189;-70
2022/10/18 00:23:54;;;;;;;3.08;2.15;;;20.40;62.00;;;;;;4993020;28;20248;-70
2022/10/18 00:26:22;;;;;;;3.50;2.58;;;20.40;62.20;;;;;;4993229;28;20638;-70
2022/10/18 00:28:52;;;;;;;2.45;2.25;;;20.40;62.30;;;;;;4993403;28;20197;-70
2022/10/18 00:31:22;;;;;;;3.85;2.22;;;20.40;62.30;;;;;;4994365;28;20205;-70
2022/10/18 00:33:51;;;;;;;3.22;2.40;;;20.40;62.40;;;;;;4992966;28;20678;-70
2022/10/18 00:36:18;;;;;;;2.13;2.03;;;20.40;62.30;;;;;;4993555;28;20228;-70
2022/10/18 00:38:45;;;;;;;4.65;2.13;;;20.40;62.20;;;;;;4992980;28;20293;-70
2022/10/18 00:41:16;;;;;;;3.17;2.30;;;20.40;62.20;;;;;;4993075;28;20204;-70
2022/10/18 00:43:59;;;;;;;3.42;2.58;;;20.30;62.10;;;;;;4992883;28;20217;-70
2022/10/18 00:46:28;;;;;;;2.35;2.15;;;20.30;62.20;;;;;;4992971;28;20255;-70
2022/10/18 00:48:55;;;;;;;3.88;2.33;;;20.40;62.30;;;;;;4992946;28;20197;-70
2022/10/18 00:51:22;;;;;;;4.13;2.50;;;20.30;62.30;;;;;;4993086;28;20217;-70
2022/10/18 00:53:49;;;;;;;3.47;2.30;;;20.30;62.10;;;;;;4994091;28;20193;-70
2022/10/18 00:56:17;;;;;;;2.47;2.20;;;20.30;62.20;;;;;;4993766;28;20208;-70
2022/10/18 00:58:43;;;;;;;3.75;2.60;;;20.30;62.30;;;;;;4992955;28;20202;-70
2022/10/18 01:01:11;;;;;;;2.55;2.22;;;20.30;62.20;;;;;;4993257;28;20209;-70
2022/10/18 01:03:38;;;;;;;2.63;2.10;;;20.30;62.30;;;;;;4994629;28;20240;-70
2022/10/18 01:06:05;;;;;;;2.53;2.10;;;20.30;62.30;;;;;;4996373;28;20204;-70
2022/10/18 01:08:44;;;;;;;3.15;2.20;;;20.30;62.60;;;;;;4996831;28;20201;-70
2022/10/18 01:11:28;;;;;;;3.35;2.40;;;20.30;62.60;;;;;;4996614;28;20233;-70
2022/10/18 01:14:02;;;;;;;3.85;2.50;;;20.30;62.50;;;;;;4996637;28;20205;-70
2022/10/18 01:16:33;;;;;;;3.78;2.40;;;20.30;62.60;;;;;;4996454;28;20189;-70
2022/10/18 01:19:01;;;;;;;3.22;2.30;;;20.30;62.60;;;;;;4996490;28;20652;-70
2022/10/18 01:21:35;;;;;;;3.72;2.58;;;20.30;62.50;;;;;;4996389;28;20292;-70
2022/10/18 01:24:27;;;;;;;3.40;2.50;;;20.30;62.30;;;;;;4996253;28;20221;-70
2022/10/18 01:27:10;;;;;;;4.53;2.40;;;20.30;62.60;;;;;;4996294;28;20236;-70
2022/10/18 01:29:44;;;;;;;3.33;2.80;;;20.30;62.50;;;;;;4995849;28;20208;-70
2022/10/18 01:32:14;;;;;;;3.75;2.55;;;20.30;62.60;;;;;;4995941;28;20617;-70
2022/10/18 01:34:41;;;;;;;4.00;2.58;;;20.30;62.50;;;;;;4995910;28;20221;-70
2022/10/18 01:37:09;;;;;;;2.53;2.33;;;20.30;62.50;;;;;;4995904;28;20252;-70
2022/10/18 01:39:37;;;;;;;2.55;2.35;;;20.30;62.50;;;;;;4995908;28;20205;-70
2022/10/18 01:42:06;;;;;;;3.47;2.83;;;20.20;62.30;;;;;;4979521;28;20200;-70
2022/10/18 01:44:33;;;;;;;3.70;2.30;;;20.30;62.60;;;;;;4996267;28;20505;-70
2022/10/18 01:47:00;;;;;;;3.45;2.53;;;20.20;62.50;;;;;;4995558;28;20202;-70
2022/10/18 01:49:29;;;;;;;4.05;2.33;;;20.20;62.50;;;;;;4995474;28;20652;-70
2022/10/18 01:51:56;;;;;;;4.00;2.47;;;20.20;62.60;;;;;;4995410;28;20579;-70
2022/10/18 01:54:27;;;;;;;2.33;2.10;;;20.20;62.60;;;;;;4995428;28;20264;-70
2022/10/18 01:56:56;;;;;;;2.70;2.50;;;20.20;62.60;;;;;;4996027;28;20193;-70
2022/10/18 01:59:33;;;;;;;2.88;2.60;;;20.30;62.70;;;;;;4995611;28;20587;-70
2022/10/18 02:02:06;;;;;;;3.28;2.50;;;20.30;62.70;;;;;;4995412;28;20197;-70
2022/10/18 02:04:41;;;;;;;2.75;2.40;;;20.20;62.60;;;;;;4995464;28;20240;-70
2022/10/18 02:07:14;;;;;;;2.70;2.47;;;20.30;62.60;;;;;;4995516;28;20235;-70
2022/10/18 02:09:45;;;;;;;2.60;2.40;;;20.30;62.60;;;;;;4995722;28;20198;-70
2022/10/18 02:12:12;;;;;;;3.65;2.20;;;20.20;62.50;;;;;;4996383;28;20267;-70
2022/10/18 02:14:39;;;;;;;3.25;2.30;;;20.30;62.50;;;;;;4995233;28;20303;-70
2022/10/18 02:17:07;;;;;;;3.22;2.40;;;20.20;62.30;;;;;;4995224;28;20209;-70
2022/10/18 02:19:37;;;;;;;3.88;2.50;;;20.30;62.60;;;;;;4995343;28;20289;-70
2022/10/18 02:22:04;;;;;;;2.80;2.40;;;20.30;62.50;;;;;;4996492;28;20590;-70
2022/10/18 02:24:33;;;;;;;2.15;1.90;;;20.30;62.60;;;;;;4995467;28;20225;-70
2022/10/18 02:27:00;;;;;;;2.42;2.05;;;20.20;62.40;;;;;;4995370;28;20201;-70
2022/10/18 02:29:27;;;;;;;2.80;2.50;;;20.30;62.60;;;;;;4997072;28;20201;-70
2022/10/18 02:31:55;;;;;;;2.75;2.38;;;20.30;62.60;;;;;;4995380;28;20225;-70
2022/10/18 02:34:23;;;;;;;2.35;2.13;;;20.30;62.50;;;;;;4995518;28;20221;-70
2022/10/18 02:36:53;;;;;;;2.30;2.10;;;20.30;62.50;;;;;;4996495;28;20224;-70
2022/10/18 02:39:23;;;;;;;4.60;2.50;;;20.30;62.30;;;;;;4997201;28;20201;-70
2022/10/18 02:41:50;;;;;;;3.00;2.22;;;20.30;62.40;;;;;;5002968;28;20201;-70
2022/10/18 02:44:17;;;;;;;4.25;2.50;;;20.30;62.50;;;;;;4994847;28;20225;-70
2022/10/18 02:46:44;;;;;;;2.30;2.08;;;20.20;62.20;;;;;;4994829;28;20567;-71
2022/10/18 02:49:11;;;;;;;2.97;2.22;;;20.30;62.40;;;;;;4994920;28;20239;-71
2022/10/18 02:51:38;;;;;;;2.50;2.30;;;20.30;62.30;;;;;;4995461;28;20218;-71
2022/10/18 02:54:07;;;;;;;2.45;1.92;;;20.30;62.20;;;;;;4978481;28;20267;-71
2022/10/18 02:56:34;;;;;;;2.30;2.10;;;20.30;62.20;;;;;;4995781;28;20198;-71
2022/10/18 02:59:02;;;;;;;2.42;2.20;;;20.30;62.20;;;;;;4994452;28;20194;-71
2022/10/18 03:01:29;;;;;;;2.50;2.30;;;20.30;62.20;;;;;;4994273;28;20201;-71
2022/10/18 03:03:56;;;;;;;2.58;2.38;;;20.30;62.10;;;;;;4994328;28;20208;-71
2022/10/18 03:06:23;;;;;;;2.55;2.35;;;20.30;62.10;;;;;;4994684;28;20570;-71
2022/10/18 03:08:50;;;;;;;2.30;2.10;;;20.30;61.90;;;;;;4994274;28;20193;-71
2022/10/18 03:11:18;;;;;;;2.53;2.33;;;20.30;62.00;;;;;;4994322;28;20210;-71
2022/10/18 03:13:45;;;;;;;4.03;2.28;;;20.30;62.00;;;;;;4995478;28;20182;-70
2022/10/18 03:16:12;;;;;;;2.92;2.35;;;20.30;62.20;;;;;;4995383;28;20208;-70
2022/10/18 03:18:41;;;;;;;2.50;2.30;;;20.30;62.30;;;;;;4994269;28;20201;-70
2022/10/18 03:21:08;;;;;;;2.60;2.40;;;20.30;62.30;;;;;;4994055;28;20202;-70
2022/10/18 03:23:36;;;;;;;3.53;2.47;;;20.30;62.10;;;;;;4994130;28;20293;-70
2022/10/18 03:26:02;;;;;;;2.35;2.15;;;20.30;61.90;;;;;;4994908;28;20197;-70
2022/10/18 03:28:31;;;;;;;2.72;2.47;;;20.40;62.10;;;;;;4993738;28;20225;-70
2022/10/18 03:31:00;;;;;;;2.40;2.20;;;20.40;61.80;;;;;;4994149;28;20571;-70
2022/10/18 03:33:28;;;;;;;3.78;2.42;;;20.40;61.70;;;;;;4993915;28;20308;-70
2022/10/18 03:35:55;;;;;;;2.42;2.20;;;20.50;61.60;;;;;;4993790;28;20304;-70
2022/10/18 03:38:22;;;;;;;4.05;2.28;;;20.60;61.40;;;;;;4993824;28;20652;-70
2022/10/18 03:40:49;;;;;;;2.53;2.33;;;20.60;61.40;;;;;;4995374;28;20201;-70
2022/10/18 03:43:16;;;;;;;2.40;2.20;;;20.60;61.20;;;;;;4993712;28;20209;-70
2022/10/18 03:45:45;;;;;;;2.25;2.03;;;20.60;61.20;;;;;;4993878;28;20229;-70
2022/10/18 03:48:12;;;;;;;2.53;2.17;;;20.60;61.10;;;;;;4999762;28;20194;-70
2022/10/18 03:50:39;;;;;;;2.25;2.00;;;20.60;61.00;;;;;;4994878;28;20247;-70
2022/10/18 03:53:06;;;;;;;2.42;2.08;;;20.60;61.00;;;;;;4995560;28;20220;-70
2022/10/18 03:55:33;;;;;;;2.38;2.17;;;20.70;61.00;;;;;;4993739;28;20252;-70
2022/10/18 03:58:00;;;;;;;3.33;2.42;;;20.70;61.00;;;;;;4993470;28;20217;-70
2022/10/18 04:00:27;;;;;;;3.40;2.15;;;20.70;60.80;;;;;;4994389;28;20189;-70
2022/10/18 04:02:55;;;;;;;2.88;2.20;;;20.70;60.70;;;;;;4993468;28;20652;-70
2022/10/18 04:05:23;;;;;;;2.85;2.25;;;20.70;60.70;;;;;;4993318;28;20225;-70
2022/10/18 04:07:50;;;;;;;2.30;2.10;;;20.70;60.70;;;;;;4994584;28;20194;-71
2022/10/18 04:10:17;;;;;;;2.90;2.10;;;20.70;60.60;;;;;;4994087;28;20197;-71
2022/10/18 04:12:44;;;;;;;2.80;2.38;;;20.70;60.60;;;;;;4993327;28;20232;-71
2022/10/18 04:15:11;;;;;;;3.08;2.40;;;20.70;60.50;;;;;;4993175;28;20229;-71
2022/10/18 04:17:38;;;;;;;2.50;2.30;;;20.70;60.40;;;;;;4993250;28;20255;-71
2022/10/18 04:20:07;;;;;;;2.22;2.03;;;20.70;60.50;;;;;;4992925;28;20300;-71
2022/10/18 04:22:35;;;;;;;2.55;2.35;;;20.70;60.50;;;;;;4993211;28;20216;-71
2022/10/18 04:25:01;;;;;;;2.50;2.30;;;20.70;60.30;;;;;;4993173;28;20221;-71
2022/10/18 04:27:29;;;;;;;2.17;2.03;;;20.70;60.40;;;;;;4977362;28;20224;-71
2022/10/18 04:29:56;;;;;;;2.55;2.35;;;20.70;60.30;;;;;;4993012;28;20201;-71
2022/10/18 04:32:23;;;;;;;3.40;2.35;;;20.70;60.30;;;;;;4992860;28;20246;-71
2022/10/18 04:34:50;;;;;;;2.53;2.33;;;20.70;60.30;;;;;;4976957;28;20699;-70
2022/10/18 04:37:18;;;;;;;3.88;2.35;;;20.70;60.40;;;;;;4992999;28;20204;-72
2022/10/18 04:39:47;;;;;;;2.50;2.30;;;20.70;60.40;;;;;;4994242;28;20201;-71
2022/10/18 04:42:14;;;;;;;2.53;2.33;;;20.70;60.40;;;;;;4997306;28;20559;-71
2022/10/18 04:44:41;;;;;;;3.65;2.50;;;20.70;60.40;;;;;;4997568;28;20691;-72
2022/10/18 04:47:08;;;;;;;3.08;2.13;;;20.70;60.60;;;;;;4997580;28;20205;-72
2022/10/18 04:49:36;;;;;;;4.32;2.30;;;20.70;61.20;;;;;;4997288;28;20204;-72
2022/10/18 04:52:02;;;;;;;2.60;2.40;;;20.60;61.00;;;;;;4997044;28;20724;-72
2022/10/18 04:54:31;;;;;;;3.50;2.30;;;20.70;61.50;;;;;;4996982;28;20307;-71
2022/10/18 04:56:58;;;;;;;4.15;2.20;;;20.60;61.40;;;;;;4998141;28;20208;-72
2022/10/18 04:59:25;;;;;;;2.75;2.28;;;20.70;61.40;;;;;;4998845;28;20197;-73
2022/10/18 05:01:52;;;;;;;3.28;2.50;;;20.60;61.60;;;;;;4999370;28;20190;-72
2022/10/18 05:04:19;;;;;;;3.55;2.60;;;20.60;61.80;;;;;;5002345;28;20228;-72
2022/10/18 05:06:46;;;;;;;3.50;2.70;;;20.60;61.80;;;;;;4997590;28;20189;-72
2022/10/18 05:09:13;;;;;;;2.60;2.40;;;20.60;61.70;;;;;;4997493;28;20260;-72
2022/10/18 05:11:41;;;;;;;5.53;2.58;;;20.70;62.00;;;;;;4996823;28;20678;-72
2022/10/18 05:14:09;;;;;;;2.60;2.40;;;20.60;61.90;;;;;;4996422;28;20270;-72
2022/10/18 05:16:36;;;;;;;3.97;2.60;;;20.60;61.90;;;;;;4996452;28;20354;-72
2022/10/18 05:19:03;;;;;;;4.68;2.65;;;20.60;61.90;;;;;;4996616;28;20598;-72
2022/10/18 05:21:30;;;;;;;2.75;2.30;;;20.60;61.90;;;;;;4997681;28;20679;-72
2022/10/18 05:23:57;;;;;;;3.63;2.70;;;20.60;61.90;;;;;;4996487;28;20193;-72
2022/10/18 05:26:24;;;;;;;3.53;2.50;;;20.60;61.80;;;;;;4996225;28;20618;-72
2022/10/18 05:28:53;;;;;;;3.95;2.50;;;20.50;61.80;;;;;;4995985;28;20197;-72
2022/10/18 05:31:20;;;;;;;2.80;2.30;;;20.50;61.90;;;;;;4996065;28;20255;-72
2022/10/18 05:33:47;;;;;;;4.00;2.13;;;20.50;62.00;;;;;;4995946;28;20314;-72
2022/10/18 05:36:14;;;;;;;4.35;2.35;;;20.40;62.00;;;;;;4996457;28;20201;-71
2022/10/18 05:38:42;;;;;;;3.67;2.30;;;20.40;62.00;;;;;;4996033;28;20567;-71
2022/10/18 05:41:09;;;;;;;5.70;2.30;;;20.50;62.00;;;;;;4995997;28;20627;-71
2022/10/18 05:43:36;;;;;;;3.10;2.22;;;20.40;61.70;;;;;;4996408;28;20193;-72
2022/10/18 05:46:06;;;;;;;3.25;2.50;;;20.50;62.00;;;;;;4996143;28;20232;-72
2022/10/18 05:48:33;;;;;;;2.75;2.20;;;20.40;61.80;;;;;;4997266;28;20551;-72
2022/10/18 05:51:00;;;;;;;2.40;2.20;;;20.40;61.80;;;;;;4995638;28;20651;-72
2022/10/18 05:53:28;;;;;;;2.30;2.10;;;20.40;61.80;;;;;;4995862;28;20407;-72
2022/10/18 05:55:55;;;;;;;3.60;2.30;;;20.40;61.80;;;;;;4997021;28;20209;-72
2022/10/18 05:58:22;;;;;;;3.30;2.35;;;20.40;61.70;;;;;;4996229;28;20296;-72
2022/10/18 06:00:49;;;;;;;5.20;2.20;;;20.40;61.40;;;;;;4995829;28;20209;-72
2022/10/18 06:03:17;;;;;;;3.20;2.10;;;20.40;61.40;;;;;;4995837;28;20190;-72
2022/10/18 06:05:44;;;;;;;3.83;2.28;;;20.40;61.20;;;;;;4996945;28;20217;-72
2022/10/18 06:08:11;;;;;;;2.45;2.25;;;20.40;61.50;;;;;;4995716;28;20221;-72
2022/10/18 06:10:38;;;;;;;2.38;1.83;;;20.40;61.70;;;;;;4995606;28;20232;-72
2022/10/18 06:13:06;;;;;;;2.38;2.17;;;20.40;61.70;;;;;;4996173;28;20228;-72
2022/10/18 06:15:32;;;;;;;3.58;2.40;;;20.40;61.70;;;;;;4995958;28;20225;-72
2022/10/18 06:17:59;;;;;;;2.67;2.40;;;20.50;61.30;;;;;;4996346;28;20205;-72
2022/10/18 06:20:28;;;;;;;3.15;2.40;;;20.50;61.30;;;;;;4997540;28;20202;-72
2022/10/18 06:22:55;;;;;;;2.92;2.25;;;20.60;61.30;;;;;;4995942;28;20197;-71
2022/10/18 06:25:22;;;;;;;3.20;2.30;;;20.60;61.30;;;;;;4995665;28;20221;-71
2022/10/18 06:27:49;;;;;;;2.40;2.20;;;20.60;61.00;;;;;;4995586;28;20208;-71
2022/10/18 06:30:16;;;;;;;2.83;2.60;;;20.60;60.60;;;;;;4995424;28;20202;-71
2022/10/18 06:32:43;;;;;;;2.47;2.28;;;20.60;60.50;;;;;;4995776;28;20221;-71
2022/10/18 06:35:10;;;;;;;3.50;2.45;;;20.60;60.60;;;;;;4995313;28;20213;-71
2022/10/18 06:37:38;;;;;;;2.40;2.20;;;20.70;60.60;;;;;;4996260;28;20192;-71
2022/10/18 06:40:07;;;;;;;3.95;2.25;;;20.70;60.70;;;;;;4995136;28;20213;-72
2022/10/18 06:42:34;;;;;;;4.30;2.40;;;20.80;60.60;;;;;;4996475;28;20196;-72
2022/10/18 06:45:02;;;;;;;2.20;2.00;;;20.80;60.40;;;;;;4995399;28;20687;-72
2022/10/18 06:47:28;;;;;;;3.88;2.20;;;20.80;60.30;;;;;;4995060;28;20284;-72
2022/10/18 06:49:56;;;;;;;2.55;2.35;;;20.80;60.20;;;;;;4994679;28;20272;-72
2022/10/18 06:52:24;;;;;;;3.00;2.63;;;20.90;60.20;;;;;;4995052;28;20288;-72
2022/10/18 06:54:53;;;;;;;2.78;2.50;;;20.90;60.20;;;;;;4994680;28;20229;-72
2022/10/18 06:57:20;;;;;;;2.70;2.50;;;20.90;60.10;;;;;;4995988;28;20196;-72
2022/10/18 06:59:48;;;;;;;3.10;2.25;;;20.90;60.10;;;;;;4995740;28;20205;-72
2022/10/18 07:02:16;;;;;;;2.97;2.38;;;20.90;60.10;;;;;;4994050;28;20198;-72
2022/10/18 07:04:43;;;;;;;2.53;2.25;;;20.90;60.00;;;;;;4994697;28;20271;-72
2022/10/18 07:07:10;;;;;;;3.42;2.60;;;21.00;60.10;;;;;;4995565;28;20202;-71
2022/10/18 07:09:37;;;;;;;3.20;2.25;;;21.00;60.00;;;;;;4996290;28;20191;-71
2022/10/18 07:12:06;;;;;;;3.00;2.70;;;21.00;60.00;;;;;;4994501;28;20224;-71
2022/10/18 07:14:33;;;;;;;3.33;3.00;;;21.00;60.00;;;;;;4994841;28;20240;-71
2022/10/18 07:17:00;;;;;;;2.70;2.50;;;20.90;59.90;;;;;;4994726;28;20675;-71
2022/10/18 07:19:27;;;;;;;5.80;2.58;;;21.00;60.00;;;;;;4994576;28;20247;-71
2022/10/18 07:21:54;;;;;;;6.63;2.50;;;21.00;60.10;;;;;;4994962;28;20197;-71
2022/10/18 07:24:21;;;;;;;2.83;2.58;;;21.00;60.10;;;;;;4995053;28;20623;-71
2022/10/18 07:26:48;;;;;;;4.00;2.45;;;21.00;60.10;;;;;;4996426;28;20211;-71
2022/10/18 07:29:16;;;;;;;2.70;2.50;;;21.00;60.10;;;;;;4996788;28;20204;-71
2022/10/18 07:31:43;;;;;;;3.83;2.70;;;21.00;60.20;;;;;;4995205;28;20197;-71
2022/10/18 07:34:11;;;;;;;3.55;2.58;;;21.00;60.20;;;;;;4995758;28;20226;-71
2022/10/18 07:36:38;;;;;;;2.55;2.35;;;21.00;60.20;;;;;;4995165;28;20206;-71
2022/10/18 07:39:06;;;;;;;3.10;2.30;;;21.00;60.20;;;;;;4995144;28;20188;-71
2022/10/18 07:41:34;;;;;;;4.57;2.70;;;21.00;60.20;;;;;;4995159;28;20216;-71
2022/10/18 07:44:02;;;;;;;2.90;2.17;;;21.00;60.30;;;;;;4994002;28;20245;-71
2022/10/18 07:46:30;;;;;;;3.20;2.47;;;21.00;60.30;;;;;;4994942;28;20435;-71
2022/10/18 07:48:58;;;;;;;3.25;2.50;;;21.00;60.20;;;;;;4993764;28;20197;-71
2022/10/18 07:51:25;;;;;;;3.15;2.40;;;21.00;60.10;;;;;;4993697;28;20556;-71
2022/10/18 07:53:52;;;;;;;2.33;2.22;;;21.00;60.00;;;;;;4994305;28;20236;-71
2022/10/18 07:56:20;;;;;;;2.65;2.45;;;21.00;60.00;;;;;;4994628;28;20205;-71
2022/10/18 07:58:48;;;;;;;2.67;2.13;;;21.00;59.90;;;;;;4993818;28;20585;-71
2022/10/18 08:01:17;;;;;;;2.97;2.38;;;21.10;60.00;;;;;;4993543;28;20262;-71
2022/10/18 08:03:45;;;;;;;3.00;2.28;;;21.10;59.90;;;;;;4994636;28;20197;-71
2022/10/18 08:06:13;;;;;;;2.90;2.60;;;21.10;59.80;;;;;;4994718;28;20193;-71
2022/10/18 08:08:40;;;;;;;2.85;2.50;;;21.10;59.70;;;;;;4993874;28;20272;-71
2022/10/18 08:11:08;;;;;;;5.00;2.58;;;21.10;59.70;;;;;;4993254;28;20213;-72
2022/10/18 08:13:35;;;;;;;3.55;2.50;;;21.10;59.70;;;;;;4994340;28;20213;-72
2022/10/18 08:16:02;;;;;;;2.30;2.10;;;21.20;59.70;;;;;;4994926;28;20209;-72
2022/10/18 08:18:29;;;;;;;2.83;2.20;;;21.30;59.80;;;;;;4994028;28;20205;-72
2022/10/18 08:20:59;;;;;;;3.83;2.40;;;21.30;59.60;;;;;;4993948;28;20189;-72
2022/10/18 08:23:26;;;;;;;2.65;2.45;;;21.30;59.50;;;;;;4994040;28;20540;-71
2022/10/18 08:25:53;;;;;;;2.85;2.20;;;21.30;59.40;;;;;;4994692;28;20240;-71
2022/10/18 08:28:20;;;;;;;2.90;2.30;;;21.30;59.30;;;;;;4995165;28;20200;-71
2022/10/18 08:30:47;;;;;;;3.38;2.42;;;21.40;59.30;;;;;;4993788;28;20216;-72
2022/10/18 08:33:15;;;;;;;2.20;2.00;;;21.40;59.20;;;;;;4993953;28;20197;-71
2022/10/18 08:35:42;;;;;;;2.63;2.40;;;21.40;59.20;;;;;;4993675;28;20221;-71
2022/10/18 08:38:11;;;;;;;3.55;2.38;;;21.40;59.10;;;;;;4993738;28;20197;-71
2022/10/18 08:40:43;;;;;;;3.20;2.38;;;21.40;59.10;;;;;;4994869;28;20656;-71
2022/10/18 08:43:14;;;;;;;3.10;2.30;;;21.40;59.10;;;;;;4995020;28;20648;-71
2022/10/18 08:45:43;;;;;;;2.22;2.03;;;21.40;59.10;;;;;;4994018;28;20264;-71
2022/10/18 08:48:17;;;;;;;3.28;2.15;;;21.40;59.10;;;;;;4993102;28;20233;-71
2022/10/18 08:50:44;;;;;;;3.90;2.40;;;21.40;59.10;;;;;;4994343;28;20173;-71
2022/10/18 08:53:17;;;;;;;3.50;2.45;;;21.50;59.10;;;;;;4993092;28;20652;-71
2022/10/18 08:55:45;;;;;;;3.17;2.03;;;21.50;59.00;;;;;;4992782;28;20213;-71
2022/10/18 08:58:17;;;;;;;3.97;2.50;;;21.60;58.90;;;;;;4992786;28;20209;-71
2022/10/18 09:00:49;;;;;;;3.97;2.60;;;21.70;58.80;;;;;;4977280;28;20209;-72
2022/10/18 09:03:22;;;;;;;3.80;2.50;;;21.80;58.50;;;;;;4992778;28;20656;-72
2022/10/18 09:05:50;;;;;;;3.17;2.53;;;22.00;58.30;;;;;;4992673;28;20722;-72
2022/10/18 09:08:32;;;;;;;2.30;2.10;;;22.00;58.00;;;;;;4992586;28;20205;-72
2022/10/18 09:11:05;;;;;;;4.13;2.47;;;22.10;57.90;;;;;;4992717;28;20206;-72
2022/10/18 09:14:01;;;;;;;3.63;2.80;;;22.10;57.90;;;;;;4992530;28;20201;-72
2022/10/18 09:16:30;;;;;;;2.83;2.53;;;22.10;57.70;;;;;;4978172;28;20683;-71
2022/10/18 09:19:01;;;;;;;3.58;2.40;;;22.10;57.60;;;;;;4992634;28;20197;-71
2022/10/18 09:21:34;;;;;;;4.13;2.55;;;22.20;57.60;;;;;;4993947;28;20229;-71
2022/10/18 09:24:11;;;;;;;2.55;2.33;;;22.20;57.70;;;;;;4992475;28;20217;-71
2022/10/18 09:26:41;;;;;;;3.22;2.53;;;22.20;57.60;;;;;;4994559;28;20244;-71
2022/10/18 09:29:12;;;;;;;3.08;2.55;;;22.30;57.50;;;;;;4996230;28;20212;-71
2022/10/18 09:31:42;;;;;;;4.05;2.20;;;22.40;57.40;;;;;;4996312;28;20197;-71
2022/10/18 09:34:11;;;;;;;2.67;2.40;;;22.50;57.00;;;;;;4996543;28;20233;-71
2022/10/18 09:36:38;;;;;;;2.40;2.20;;;22.70;56.70;;;;;;4997537;28;20198;-71
2022/10/18 09:39:10;;;;;;;2.45;2.20;;;22.90;56.50;;;;;;4997510;28;20213;-72
2022/10/18 09:41:39;;;;;;;2.45;2.25;;;23.00;56.20;;;;;;4996458;28;20213;-72
2022/10/18 09:44:11;;;;;;;2.42;2.22;;;23.10;55.80;;;;;;4996328;28;20244;-72
2022/10/18 09:46:41;;;;;;;2.75;2.10;;;23.20;55.40;;;;;;4996410;28;20193;-72
2022/10/18 09:49:11;;;;;;;2.70;2.00;;;23.40;55.70;;;;;;4996717;28;20201;-72
2022/10/18 09:51:39;;;;;;;2.40;2.20;;;23.50;55.00;;;;;;4999149;28;20186;-72
2022/10/18 09:54:14;;;;;;;2.47;2.13;;;23.50;54.70;;;;;;4996490;28;20392;-72
2022/10/18 09:56:44;;;;;;;2.42;1.98;;;23.60;54.50;;;;;;4996307;28;20200;-72
2022/10/18 09:59:22;;;;;;;2.13;1.92;;;23.70;54.30;;;;;;4996337;28;20576;-72
2022/10/18 10:01:49;;;;;;;2.15;2.03;;;23.70;54.50;;;;;;4995953;28;20200;-72
2022/10/18 10:04:16;;;;;;;2.20;2.00;;;23.70;54.20;;;;;;4995844;28;20213;-72
2022/10/18 10:06:49;;;;;;;2.80;2.30;;;23.60;54.20;;;;;;4995770;28;20582;-72
2022/10/18 10:09:18;;;;;;;2.30;2.10;;;23.60;54.20;;;;;;4995609;28;20197;-72
2022/10/18 10:11:46;;;;;;;2.03;1.92;;;23.60;54.10;;;;;;4995750;28;20216;-72
2022/10/18 10:14:14;;;;;;;1.90;1.80;;;23.60;54.00;;;;;;4995599;28;20272;-72
2022/10/18 10:16:49;;;;;;;2.40;2.20;;;23.60;54.10;;;;;;4996861;28;20675;-72
2022/10/18 10:19:18;;;;;;;2.35;2.03;;;23.60;54.20;;;;;;4995701;28;20205;-72
2022/10/18 10:21:45;;;;;;;2.72;1.92;;;23.60;54.20;;;;;;4996748;28;20201;-72
2022/10/18 10:24:21;;;;;;;2.30;2.10;;;23.60;54.20;;;;;;4995620;28;20227;-72
2022/10/18 10:26:48;;;;;;;1.88;1.77;;;23.60;54.30;;;;;;4995461;28;20577;-72
2022/10/18 10:29:43;;;;;;;2.00;1.85;;;23.50;54.30;;;;;;4995268;28;20220;-72
2022/10/18 10:32:12;;;;;;;2.20;2.00;;;23.50;54.40;;;;;;4995848;28;20247;-72
2022/10/18 10:34:39;;;;;;;2.20;1.92;;;23.50;54.50;;;;;;4996372;28;20241;-72
2022/10/18 10:37:25;;;;;;;2.20;2.00;;;23.50;54.40;;;;;;4994512;28;20202;-72
2022/10/18 10:40:07;;;;;;;2.03;1.90;;;23.50;54.40;;;;;;4995681;28;20204;-72
2022/10/18 10:42:34;;;;;;;1.95;1.83;;;23.50;54.40;;;;;;4994840;28;20197;-72
2022/10/18 10:45:01;;;;;;;2.05;1.95;;;23.50;54.30;;;;;;4994922;28;20222;-72
2022/10/18 10:47:28;;;;;;;2.25;2.05;;;23.60;54.30;;;;;;4994912;28;20564;-72
2022/10/18 10:49:55;;;;;;;2.08;1.85;;;23.60;54.20;;;;;;4994677;28;20723;-72
2022/10/18 10:52:23;;;;;;;2.17;1.88;;;23.60;54.20;;;;;;4994652;28;20301;-72
2022/10/18 10:54:50;;;;;;;2.42;2.22;;;23.60;54.20;;;;;;4994549;28;20719;-72
2022/10/18 10:57:21;;;;;;;2.10;2.00;;;23.60;54.20;;;;;;4995057;28;20198;-72
2022/10/18 10:59:49;;;;;;;2.03;1.92;;;23.60;54.20;;;;;;4994409;28;20714;-72
2022/10/18 11:02:21;;;;;;;2.08;1.88;;;23.60;54.30;;;;;;4994356;28;20197;-71
2022/10/18 11:04:48;;;;;;;1.83;1.70;;;23.50;54.40;;;;;;4994183;28;20631;-71
2022/10/18 11:07:16;;;;;;;2.25;2.10;;;23.50;54.50;;;;;;4994678;28;20284;-71
2022/10/18 11:09:54;;;;;;;2.10;1.90;;;23.50;54.50;;;;;;4994222;28;20657;-71
2022/10/18 11:12:25;;;;;;;2.10;1.90;;;23.50;54.50;;;;;;4994192;28;20205;-71
2022/10/18 11:14:57;;;;;;;3.15;2.10;;;23.50;54.40;;;;;;4995213;28;20296;-71
2022/10/18 11:17:28;;;;;;;2.30;2.10;;;23.50;54.50;;;;;;4994040;28;20284;-71
2022/10/18 11:20:01;;;;;;;2.90;1.98;;;23.50;54.50;;;;;;4994304;28;20208;-71
2022/10/18 11:22:30;;;;;;;2.50;2.08;;;23.50;54.50;;;;;;4995474;28;20189;-71
2022/10/18 11:24:57;;;;;;;2.10;1.90;;;23.50;54.50;;;;;;4995246;28;20252;-71
2022/10/18 11:27:26;;;;;;;2.03;1.92;;;23.50;54.40;;;;;;4993913;28;20677;-71
2022/10/18 11:30:14;;;;;;;2.40;2.20;;;23.50;54.40;;;;;;4993813;28;20256;-71
2022/10/18 11:32:44;;;;;;;2.00;1.80;;;23.60;54.50;;;;;;4995277;28;20182;-71
2022/10/18 11:35:24;;;;;;;2.03;1.88;;;23.50;54.50;;;;;;4994681;28;20253;-71
2022/10/18 11:38:00;;;;;;;2.00;1.90;;;23.50;54.50;;;;;;4995340;28;20607;-71
2022/10/18 11:40:34;;;;;;;2.20;1.90;;;23.50;54.40;;;;;;4995332;28;20639;-71
2022/10/18 11:43:07;;;;;;;2.25;2.03;;;23.50;54.40;;;;;;4993930;28;20232;-71
2022/10/18 11:45:37;;;;;;;2.10;1.90;;;23.50;54.40;;;;;;4994809;28;20241;-71
2022/10/18 11:48:08;;;;;;;2.15;2.03;;;23.50;54.50;;;;;;4994342;28;20201;-71
2022/10/18 11:50:36;;;;;;;2.03;1.92;;;23.50;54.40;;;;;;4994906;28;20240;-71
2022/10/18 11:53:09;;;;;;;2.63;2.17;;;23.50;54.50;;;;;;4993938;28;20205;-71
2022/10/18 11:55:45;;;;;;;1.90;1.80;;;23.50;54.50;;;;;;4995003;28;20219;-71
2022/10/18 11:58:22;;;;;;;2.00;1.90;;;23.50;54.50;;;;;;4995316;28;20273;-71
2022/10/18 12:00:52;;;;;;;2.17;1.98;;;23.50;54.50;;;;;;4995629;28;20186;-71
2022/10/18 12:03:27;;;;;;;2.05;1.80;;;23.50;54.50;;;;;;4994710;28;20197;-71
2022/10/18 12:05:55;;;;;;;1.85;1.75;;;23.50;54.50;;;;;;4994122;28;20264;-71
2022/10/18 12:08:25;;;;;;;1.92;1.83;;;23.50;54.60;;;;;;4995656;28;20679;-71
2022/10/18 12:10:53;;;;;;;2.00;1.90;;;23.50;54.70;;;;;;4996257;28;20208;-71
2022/10/18 12:13:25;;;;;;;2.20;2.00;;;23.50;54.70;;;;;;5010301;28;20174;-71
2022/10/18 12:15:52;;;;;;;2.85;2.13;;;23.50;54.70;;;;;;4995295;28;20687;-71
2022/10/18 12:18:20;;;;;;;2.10;1.90;;;23.50;54.70;;;;;;4994421;28;20208;-71
2022/10/18 12:20:48;;;;;;;1.80;1.70;;;23.50;54.70;;;;;;4993929;28;20220;-71
2022/10/18 12:23:16;;;;;;;1.80;1.70;;;23.50;54.70;;;;;;4995022;28;20209;-71
2022/10/18 12:25:46;;;;;;;2.13;1.92;;;23.50;54.70;;;;;;4993757;28;20256;-71
2022/10/18 12:28:16;;;;;;;2.20;2.00;;;23.60;54.70;;;;;;4993613;28;20205;-71
2022/10/18 12:30:48;;;;;;;2.15;1.98;;;23.50;54.70;;;;;;4994078;28;20197;-71
2022/10/18 12:33:25;;;;;;;2.13;1.98;;;23.50;54.70;;;;;;4995448;28;20188;-71
2022/10/18 12:36:00;;;;;;;1.83;1.73;;;23.50;54.70;;;;;;4995118;28;20217;-71
2022/10/18 12:38:28;;;;;;;2.03;1.92;;;23.50;54.80;;;;;;4977998;28;20197;-71
2022/10/18 12:40:56;;;;;;;2.20;2.00;;;23.50;54.80;;;;;;4994533;28;20248;-71
2022/10/18 12:43:25;;;;;;;2.08;1.98;;;23.50;54.80;;;;;;4994052;28;20296;-71
2022/10/18 12:45:55;;;;;;;1.90;1.80;;;23.40;54.80;;;;;;4995100;28;20213;-71
2022/10/18 12:48:31;;;;;;;2.05;1.90;;;23.50;54.90;;;;;;4993932;28;20292;-71
2022/10/18 12:50:59;;;;;;;2.10;1.90;;;23.50;54.90;;;;;;5001411;28;20196;-71
2022/10/18 12:53:26;;;;;;;2.45;1.95;;;23.50;54.80;;;;;;4994364;28;20296;-71
2022/10/18 12:55:54;;;;;;;1.80;1.70;;;23.50;54.90;;;;;;4993397;28;20595;-71
2022/10/18 12:58:29;;;;;;;1.88;1.77;;;23.50;54.90;;;;;;4977354;28;20740;-71